This is the latest recevied weather packets stored in our database for station/object KD0ISH. If no packets are shown the sender has not sent any weather packets the latest 10 day(s).
| Time | Temp. | Humidity | Pressure | Rain* | Wind** | Luminosity | Snow |
|---|---|---|---|---|---|---|---|
| 1777761027 | 18.89° C | 42% | 1020.9 hPa | 0 mm | - | 290 W/m² | - |
| 1777760724 | 18.89° C | 40% | 1020.6 hPa | 0 mm | - | 299 W/m² | - |
| 1777760420 | 18.89° C | 42% | 1020.8 hPa | 0 mm | - | 303 W/m² | - |
| 1777760116 | 17.78° C | 42% | 1020.7 hPa | 0 mm | - | 347 W/m² | - |
| 1777759813 | 17.78° C | 44% | 1020.8 hPa | 0 mm | - | 362 W/m² | - |
| 1777759509 | 17.78° C | 44% | 1020.6 hPa | 0 mm | - | 377 W/m² | - |
| 1777759206 | 17.78° C | 43% | 1020.7 hPa | 0 mm | - | 391 W/m² | - |
| 1777758903 | 17.78° C | 43% | 1020.8 hPa | 0 mm | - | 401 W/m² | - |
| 1777758600 | 17.22° C | 43% | 1020.6 hPa | 0 mm | - | 379 W/m² | - |
| 1777758297 | 16.67° C | 44% | 1020.8 hPa | 0 mm | - | 420 W/m² | - |
| 1777757994 | 17.22° C | 43% | 1020.8 hPa | 0 mm | - | 432 W/m² | - |
| 1777757691 | 17.22° C | 42% | 1020.9 hPa | 0 mm | - | 430 W/m² | - |
| 1777757389 | 17.78° C | 42% | 1020.9 hPa | 0 mm | - | 425 W/m² | - |
| 1777757088 | 16.67° C | 41% | 1020.8 hPa | 0 mm | - | 439 W/m² | - |
| 1777756784 | 17.78° C | 39% | 1020.8 hPa | 0 mm | - | 474 W/m² | - |
| 1777756480 | 18.33° C | 40% | 1020.8 hPa | 0 mm | - | 493 W/m² | - |
| 1777756178 | 18.89° C | 40% | 1020.8 hPa | 0 mm | - | 500 W/m² | - |
| 1777755874 | 17.22° C | 42% | 1020.7 hPa | 0 mm | - | 518 W/m² | - |
| 1777755572 | 16.67° C | 44% | 1021 hPa | 0 mm | - | 544 W/m² | - |
| 1777755268 | 16.67° C | 40% | 1021 hPa | 0 mm | - | 544 W/m² | - |
| 1777754965 | 17.22° C | 42% | 1021.2 hPa | 0 mm | - | 570 W/m² | - |
| 1777754662 | 17.78° C | 39% | 1021.1 hPa | 0 mm | - | 564 W/m² | - |
| 1777754360 | 17.78° C | 42% | 1021.2 hPa | 0 mm | - | 576 W/m² | - |
| 1777754057 | 18.33° C | 38% | 1021.2 hPa | 0 mm | - | 560 W/m² | - |
| 1777753753 | 17.78° C | 44% | 1021.4 hPa | 0 mm | - | 527 W/m² | - |
* Rain latest hour (hover to see other rain measurements)
** Current wind speed in m/s (hover to see current wind gust speed)